Pittsburgh, Pennsylvania
Current Conditions -  °F | °C
As of 6:53 PM on Saturday 20 Dec 2014 (Local Time) from KAGC Reporting Station
Overcast Overcast  
Wind Chill: -2°   Ceiling: 2600
Heat Index: -2°   Visibility: 10mi
Dew Point: -8°   Wind: 3mph
Humidity: 63%   Direction: 300°WNW
Pressure: 30.24"   Gusts: NA
Location:  40.44°N, 80°W
Report Text: KAGC 202353Z AUTO 30003KT 10SM OVC026 M02/M08 A3024 RMK AO2 SLP259 T10221083 10006 21022 53009 TSNO
Loading
Personal Weather Stations






























Interactive Weather Map New forecast layout! Learn more

10-Day Weather Forecast

Advertisements
Track Severe Weather on mobile